CDT,Max TemperatureF,Mean TemperatureF,Min TemperatureF,Max Dew PointF,MeanDew PointF,Min DewpointF,Max Humidity, Mean Humidity, Min Humidity, Max Sea Level PressureIn, Mean Sea Level PressureIn, Min Sea Level PressureIn, Max VisibilityMiles, Mean VisibilityMiles, Min VisibilityMiles, Max Wind SpeedMPH, Mean Wind SpeedMPH, Max Gust SpeedMPH,PrecipitationIn, CloudCover, Events, WindDirDegrees
2013-10-1,83,70,57,63,59,56,100,74,47,29.97,29.91,29.88,10,9,5,18,9,26,0.00,1,,207
2013-10-2,85,71,57,61,55,41,90,61,31,30.07,30.00,29.93,10,10,7,20,8,24,0.00,2,,116
2013-10-3,80,74,67,70,66,62,97,82,67,29.94,29.88,29.81,10,7,2,17,9,22,0.05,5,Rain-Thunderstorm,186
2013-10-4,80,72,63,68,65,61,93,80,67,30.01,29.92,29.85,10,6,0,20,8,25,0.28,5,Fog-Rain-Thunderstorm,139
2013-10-5,74,60,45,70,61,42,93,77,60,29.88,29.84,29.79,10,8,4,20,8,25,0.03,4,Rain-Thunderstorm,215
2013-10-6,53,47,41,43,40,35,96,73,50,29.84,29.79,29.76,10,10,9,15,7,18,0.01,5,Rain,239
2013-10-7,73,57,41,47,43,38,100,65,29,30.09,29.95,29.83,10,10,8,18,7,28,0.00,2,,270
2013-10-8,78,61,44,48,44,40,92,59,25,30.17,30.12,30.08,10,10,10,16,8,22,0.00,0,,175
2013-10-9,75,60,45,48,44,38,92,59,25,30.21,30.15,30.11,10,10,10,14,6,16,0.00,0,,149
2013-10-10,77,61,44,54,48,41,92,66,39,30.17,30.09,30.01,10,10,7,13,6,22,0.00,0,,131
2013-10-11,78,65,51,56,53,51,93,66,39,30.03,29.95,29.86,10,9,5,25,12,32,0.00,1,,149
2013-10-12,70,56,42,57,46,35,84,56,28,30.23,30.01,29.87,10,10,7,20,10,25,0.00,2,,264
2013-10-13,67,50,33,40,32,27,92,58,24,30.45,30.37,30.24,10,10,10,12,4,16,0.00,0,,359
2013-10-14,66,50,33,42,36,30,89,63,37,30.40,30.27,30.06,10,10,10,21,10,24,0.00,0,,108
2013-10-15,66,57,48,59,49,38,93,69,44,30.03,29.88,29.81,10,8,2,23,13,29,0.04,6,,210
2013-10-16,52,50,47,45,43,41,93,82,71,30.00,29.95,29.89,10,10,3,18,12,26,0.00,8,,271
2013-10-17,61,50,39,45,39,30,93,63,32,29.96,29.90,29.85,10,10,8,21,7,26,T,4,Rain,248
2013-10-18,51,45,38,41,36,33,92,72,52,30.01,29.96,29.87,10,10,6,18,11,25,0.00,6,,274
2013-10-19,55,44,32,38,33,29,89,64,38,29.95,29.87,29.81,10,10,10,23,9,31,T,3,Rain,248
2013-10-20,61,48,34,45,39,31,92,69,46,29.87,29.82,29.73,10,10,10,18,7,23,T,6,Rain,220
2013-10-21,48,37,26,39,26,20,82,58,34,30.03,29.99,29.86,10,10,10,24,10,32,0.00,3,,291
2013-10-22,36,30,24,35,31,20,100,91,81,30.03,29.97,29.91,10,5,0,14,6,17,0.29,7,Fog-Rain-Snow,42
2013-10-23,43,36,28,34,29,26,92,73,53,30.10,30.06,30.02,10,10,7,16,9,20,T,6,,288
2013-10-24,40,32,24,25,22,21,81,65,48,30.38,30.25,30.10,10,10,10,20,9,25,0.00,5,,304
2013-10-25,53,38,22,31,24,20,88,58,28,30.44,30.30,30.07,10,10,7,22,11,26,0.00,0,,232
2013-10-26,53,41,29,32,27,24,78,57,35,30.14,30.02,29.92,10,10,10,26,14,35,0.00,1,,276
2013-10-27,57,41,24,30,27,22,88,60,32,30.12,30.05,29.97,10,10,10,17,7,22,0.00,0,,223
2013-10-28,59,46,33,40,34,27,82,67,51,30.35,30.23,30.05,10,10,9,22,12,26,0.00,0,,87
2013-10-29,57,46,35,45,37,31,89,70,51,30.34,30.22,30.10,10,9,6,16,10,20,0.00,4,,106
2013-10-30,62,57,52,58,54,48,100,95,89,30.08,29.95,29.74,10,3,1,33,11,39,1.11,8,Rain,129
2013-10-31,63,53,43,61,52,39,100,92,83,29.73,29.51,29.37,10,6,2,22,14,26,0.25,8,Rain,250